sensor_id;sensor_type;location;lat;lon;timestamp;temperature;humidity
7684;DHT22;3884;48.616;12.872;2023-09-07T00:00:58;15.60;99.90
7684;DHT22;3884;48.616;12.872;2023-09-07T00:03:26;15.50;99.90
7684;DHT22;3884;48.616;12.872;2023-09-07T00:05:53;15.60;77.80
7684;DHT22;3884;48.616;12.872;2023-09-07T00:08:20;15.50;99.90
7684;DHT22;3884;48.616;12.872;2023-09-07T00:10:47;15.50;24.40
7684;DHT22;3884;48.616;12.872;2023-09-07T00:13:15;15.40;1.00
7684;DHT22;3884;48.616;12.872;2023-09-07T00:15:42;15.30;1.00
7684;DHT22;3884;48.616;12.872;2023-09-07T00:18:09;15.30;1.00
7684;DHT22;3884;48.616;12.872;2023-09-07T00:20:36;15.20;26.20
7684;DHT22;3884;48.616;12.872;2023-09-07T00:23:06;15.20;1.00
7684;DHT22;3884;48.616;12.872;2023-09-07T00:25:33;15.30;99.90
7684;DHT22;3884;48.616;12.872;2023-09-07T00:28:00;15.20;23.90
7684;DHT22;3884;48.616;12.872;2023-09-07T00:30:28;15.10;25.90
7684;DHT22;3884;48.616;12.872;2023-09-07T00:32:55;15.00;99.90
7684;DHT22;3884;48.616;12.872;2023-09-07T00:35:22;15.00;99.90
7684;DHT22;3884;48.616;12.872;2023-09-07T00:37:49;15.00;99.90
7684;DHT22;3884;48.616;12.872;2023-09-07T00:40:16;15.00;25.80
7684;DHT22;3884;48.616;12.872;2023-09-07T00:42:43;15.00;99.90
7684;DHT22;3884;48.616;12.872;2023-09-07T00:45:10;15.00;99.90
7684;DHT22;3884;48.616;12.872;2023-09-07T00:47:40;15.00;99.90
7684;DHT22;3884;48.616;12.872;2023-09-07T00:50:07;14.90;1.00
7684;DHT22;3884;48.616;12.872;2023-09-07T00:52:35;14.80;1.00
7684;DHT22;3884;48.616;12.872;2023-09-07T00:55:06;14.80;1.00
7684;DHT22;3884;48.616;12.872;2023-09-07T00:57:34;14.80;99.90
7684;DHT22;3884;48.616;12.872;2023-09-07T01:00:03;14.90;1.00
7684;DHT22;3884;48.616;12.872;2023-09-07T01:02:31;14.90;99.90
7684;DHT22;3884;48.616;12.872;2023-09-07T01:05:01;14.80;1.00
7684;DHT22;3884;48.616;12.872;2023-09-07T01:07:32;14.90;99.90
7684;DHT22;3884;48.616;12.872;2023-09-07T01:10:03;14.70;1.00
7684;DHT22;3884;48.616;12.872;2023-09-07T01:12:30;14.70;99.90
7684;DHT22;3884;48.616;12.872;2023-09-07T01:14:57;14.70;99.90
7684;DHT22;3884;48.616;12.872;2023-09-07T01:17:25;14.60;99.90
7684;DHT22;3884;48.616;12.872;2023-09-07T01:19:53;14.60;99.90
7684;DHT22;3884;48.616;12.872;2023-09-07T01:22:22;14.40;1.00
7684;DHT22;3884;48.616;12.872;2023-09-07T01:24:50;14.20;1.00
7684;DHT22;3884;48.616;12.872;2023-09-07T01:27:18;14.30;80.50
7684;DHT22;3884;48.616;12.872;2023-09-07T01:29:45;14.40;99.90
7684;DHT22;3884;48.616;12.872;2023-09-07T01:32:12;14.40;99.90
7684;DHT22;3884;48.616;12.872;2023-09-07T01:34:39;14.40;99.90
7684;DHT22;3884;48.616;12.872;2023-09-07T01:37:06;14.40;99.90
7684;DHT22;3884;48.616;12.872;2023-09-07T01:39:35;14.30;99.90
7684;DHT22;3884;48.616;12.872;2023-09-07T01:42:03;14.30;99.90
7684;DHT22;3884;48.616;12.872;2023-09-07T01:44:30;14.30;99.90
7684;DHT22;3884;48.616;12.872;2023-09-07T01:46:57;14.30;1.00
7684;DHT22;3884;48.616;12.872;2023-09-07T01:49:24;14.10;1.00
7684;DHT22;3884;48.616;12.872;2023-09-07T01:51:51;14.10;1.00
7684;DHT22;3884;48.616;12.872;2023-09-07T01:54:20;14.10;1.00
7684;DHT22;3884;48.616;12.872;2023-09-07T01:56:49;14.10;99.90
7684;DHT22;3884;48.616;12.872;2023-09-07T01:59:15;14.10;1.00
7684;DHT22;3884;48.616;12.872;2023-09-07T02:01:42;14.10;99.90
7684;DHT22;3884;48.616;12.872;2023-09-07T02:04:09;14.10;1.00
7684;DHT22;3884;48.616;12.872;2023-09-07T02:06:36;14.10;1.00
7684;DHT22;3884;48.616;12.872;2023-09-07T02:09:03;14.00;99.90
7684;DHT22;3884;48.616;12.872;2023-09-07T02:11:30;13.90;99.90
7684;DHT22;3884;48.616;12.872;2023-09-07T02:13:59;13.90;99.90
7684;DHT22;3884;48.616;12.872;2023-09-07T02:16:26;13.90;1.00
7684;DHT22;3884;48.616;12.872;2023-09-07T02:19:00;13.80;99.90
7684;DHT22;3884;48.616;12.872;2023-09-07T02:21:27;13.70;99.90
7684;DHT22;3884;48.616;12.872;2023-09-07T02:23:54;13.60;1.00
7684;DHT22;3884;48.616;12.872;2023-09-07T02:26:21;13.70;99.90
7684;DHT22;3884;48.616;12.872;2023-09-07T02:28:48;13.70;95.90
7684;DHT22;3884;48.616;12.872;2023-09-07T02:31:17;13.60;1.00
7684;DHT22;3884;48.616;12.872;2023-09-07T02:33:44;13.60;1.00
7684;DHT22;3884;48.616;12.872;2023-09-07T02:36:11;13.70;1.00
7684;DHT22;3884;48.616;12.872;2023-09-07T02:38:38;13.70;92.60
7684;DHT22;3884;48.616;12.872;2023-09-07T02:41:04;13.70;1.00
7684;DHT22;3884;48.616;12.872;2023-09-07T02:43:32;13.60;99.90
7684;DHT22;3884;48.616;12.872;2023-09-07T02:45:59;13.60;99.90
7684;DHT22;3884;48.616;12.872;2023-09-07T02:48:28;13.70;99.90
7684;DHT22;3884;48.616;12.872;2023-09-07T02:50:55;13.60;99.90
7684;DHT22;3884;48.616;12.872;2023-09-07T02:53:24;13.60;1.00
7684;DHT22;3884;48.616;12.872;2023-09-07T02:55:51;13.50;1.00
7684;DHT22;3884;48.616;12.872;2023-09-07T02:58:18;13.50;1.00
7684;DHT22;3884;48.616;12.872;2023-09-07T03:00:45;13.50;1.00
7684;DHT22;3884;48.616;12.872;2023-09-07T03:03:14;13.50;1.00
7684;DHT22;3884;48.616;12.872;2023-09-07T03:05:44;13.40;1.00
7684;DHT22;3884;48.616;12.872;2023-09-07T03:08:11;13.40;99.90
7684;DHT22;3884;48.616;12.872;2023-09-07T03:10:39;13.40;1.00
7684;DHT22;3884;48.616;12.872;2023-09-07T03:13:06;13.30;1.00
7684;DHT22;3884;48.616;12.872;2023-09-07T03:15:34;13.30;71.50
7684;DHT22;3884;48.616;12.872;2023-09-07T03:18:04;13.20;1.00
7684;DHT22;3884;48.616;12.872;2023-09-07T03:20:33;13.20;99.60
7684;DHT22;3884;48.616;12.872;2023-09-07T03:23:02;13.40;99.30
7684;DHT22;3884;48.616;12.872;2023-09-07T03:25:29;13.20;42.00
7684;DHT22;3884;48.616;12.872;2023-09-07T03:27:56;13.20;99.90
7684;DHT22;3884;48.616;12.872;2023-09-07T03:30:23;13.20;1.00
7684;DHT22;3884;48.616;12.872;2023-09-07T03:32:52;13.20;99.90
7684;DHT22;3884;48.616;12.872;2023-09-07T03:35:19;13.20;99.90
7684;DHT22;3884;48.616;12.872;2023-09-07T03:37:46;13.20;99.90
7684;DHT22;3884;48.616;12.872;2023-09-07T03:40:14;13.20;99.90
7684;DHT22;3884;48.616;12.872;2023-09-07T03:42:42;13.10;1.00
7684;DHT22;3884;48.616;12.872;2023-09-07T03:45:09;13.00;1.00
7684;DHT22;3884;48.616;12.872;2023-09-07T03:47:37;13.10;1.00
7684;DHT22;3884;48.616;12.872;2023-09-07T03:50:05;13.10;1.00
7684;DHT22;3884;48.616;12.872;2023-09-07T03:52:32;13.10;99.90
7684;DHT22;3884;48.616;12.872;2023-09-07T03:55:01;13.10;99.90
7684;DHT22;3884;48.616;12.872;2023-09-07T03:57:30;13.00;99.90
7684;DHT22;3884;48.616;12.872;2023-09-07T03:59:58;12.90;99.90
7684;DHT22;3884;48.616;12.872;2023-09-07T04:02:25;12.90;99.90
7684;DHT22;3884;48.616;12.872;2023-09-07T04:04:53;12.90;1.00
7684;DHT22;3884;48.616;12.872;2023-09-07T04:07:20;12.90;1.00
7684;DHT22;3884;48.616;12.872;2023-09-07T04:09:47;12.80;1.00
7684;DHT22;3884;48.616;12.872;2023-09-07T04:12:14;12.70;1.00
7684;DHT22;3884;48.616;12.872;2023-09-07T04:14:43;12.70;1.00
7684;DHT22;3884;48.616;12.872;2023-09-07T04:17:10;12.80;1.00
7684;DHT22;3884;48.616;12.872;2023-09-07T04:19:37;12.80;1.00
7684;DHT22;3884;48.616;12.872;2023-09-07T04:22:05;12.80;99.90
7684;DHT22;3884;48.616;12.872;2023-09-07T04:24:32;12.90;99.90
7684;DHT22;3884;48.616;12.872;2023-09-07T04:27:00;12.90;1.00
7684;DHT22;3884;48.616;12.872;2023-09-07T04:29:28;12.70;1.00
7684;DHT22;3884;48.616;12.872;2023-09-07T04:31:57;12.70;1.00
7684;DHT22;3884;48.616;12.872;2023-09-07T04:34:24;12.50;99.90
7684;DHT22;3884;48.616;12.872;2023-09-07T04:36:53;12.60;1.00
7684;DHT22;3884;48.616;12.872;2023-09-07T04:39:19;12.50;1.00
7684;DHT22;3884;48.616;12.872;2023-09-07T04:41:47;12.60;99.90
7684;DHT22;3884;48.616;12.872;2023-09-07T04:44:14;12.50;99.90
7684;DHT22;3884;48.616;12.872;2023-09-07T04:46:41;12.50;1.00
7684;DHT22;3884;48.616;12.872;2023-09-07T04:49:11;12.50;1.00
7684;DHT22;3884;48.616;12.872;2023-09-07T04:51:38;12.30;1.00
7684;DHT22;3884;48.616;12.872;2023-09-07T04:54:05;12.50;99.90
7684;DHT22;3884;48.616;12.872;2023-09-07T04:56:32;12.60;1.00
7684;DHT22;3884;48.616;12.872;2023-09-07T04:58:58;12.50;1.00
7684;DHT22;3884;48.616;12.872;2023-09-07T05:01:26;12.40;99.90
7684;DHT22;3884;48.616;12.872;2023-09-07T05:03:54;12.60;99.90
7684;DHT22;3884;48.616;12.872;2023-09-07T05:06:23;12.60;99.90
7684;DHT22;3884;48.616;12.872;2023-09-07T05:08:51;12.60;1.00
7684;DHT22;3884;48.616;12.872;2023-09-07T05:11:18;12.60;99.90
7684;DHT22;3884;48.616;12.872;2023-09-07T05:13:45;12.70;1.00
7684;DHT22;3884;48.616;12.872;2023-09-07T05:16:12;12.70;1.00
7684;DHT22;3884;48.616;12.872;2023-09-07T05:18:40;12.70;99.90
7684;DHT22;3884;48.616;12.872;2023-09-07T05:21:12;12.80;1.00
7684;DHT22;3884;48.616;12.872;2023-09-07T05:23:42;12.90;47.70
7684;DHT22;3884;48.616;12.872;2023-09-07T05:26:09;12.80;1.00
7684;DHT22;3884;48.616;12.872;2023-09-07T05:28:36;12.90;1.00
7684;DHT22;3884;48.616;12.872;2023-09-07T05:31:03;12.90;1.00
7684;DHT22;3884;48.616;12.872;2023-09-07T05:33:31;13.00;61.60
7684;DHT22;3884;48.616;12.872;2023-09-07T05:35:57;13.00;99.90
7684;DHT22;3884;48.616;12.872;2023-09-07T05:38:24;13.00;1.00
7684;DHT22;3884;48.616;12.872;2023-09-07T05:40:53;13.00;99.90
7684;DHT22;3884;48.616;12.872;2023-09-07T05:43:22;13.00;1.00
7684;DHT22;3884;48.616;12.872;2023-09-07T05:45:49;13.10;1.00
7684;DHT22;3884;48.616;12.872;2023-09-07T05:48:16;13.10;99.90
7684;DHT22;3884;48.616;12.872;2023-09-07T05:50:44;13.20;99.90
7684;DHT22;3884;48.616;12.872;2023-09-07T05:53:11;13.30;99.90
7684;DHT22;3884;48.616;12.872;2023-09-07T05:55:38;13.30;99.90
7684;DHT22;3884;48.616;12.872;2023-09-07T05:58:07;13.30;99.90
7684;DHT22;3884;48.616;12.872;2023-09-07T06:00:38;13.30;1.00
7684;DHT22;3884;48.616;12.872;2023-09-07T06:03:06;13.50;13.70
7684;DHT22;3884;48.616;12.872;2023-09-07T06:05:34;13.60;99.90
7684;DHT22;3884;48.616;12.872;2023-09-07T06:08:02;13.80;99.90
7684;DHT22;3884;48.616;12.872;2023-09-07T06:10:29;13.80;1.00
7684;DHT22;3884;48.616;12.872;2023-09-07T06:12:57;13.80;1.00
7684;DHT22;3884;48.616;12.872;2023-09-07T06:15:26;13.90;1.00
7684;DHT22;3884;48.616;12.872;2023-09-07T06:17:53;14.00;1.00
7684;DHT22;3884;48.616;12.872;2023-09-07T06:20:21;14.00;1.00
7684;DHT22;3884;48.616;12.872;2023-09-07T06:22:48;14.10;1.00
7684;DHT22;3884;48.616;12.872;2023-09-07T06:25:16;14.20;99.90
7684;DHT22;3884;48.616;12.872;2023-09-07T06:27:44;14.30;99.90
7684;DHT22;3884;48.616;12.872;2023-09-07T06:30:11;14.30;99.90
7684;DHT22;3884;48.616;12.872;2023-09-07T06:32:40;14.40;99.90
7684;DHT22;3884;48.616;12.872;2023-09-07T06:35:09;14.50;99.90
7684;DHT22;3884;48.616;12.872;2023-09-07T06:37:37;14.60;99.90
7684;DHT22;3884;48.616;12.872;2023-09-07T06:40:08;14.70;99.90
7684;DHT22;3884;48.616;12.872;2023-09-07T06:42:36;14.80;99.90
7684;DHT22;3884;48.616;12.872;2023-09-07T06:45:08;14.90;99.90
7684;DHT22;3884;48.616;12.872;2023-09-07T06:47:36;15.10;1.00
7684;DHT22;3884;48.616;12.872;2023-09-07T06:50:05;15.30;1.00
7684;DHT22;3884;48.616;12.872;2023-09-07T06:52:33;15.70;1.00
7684;DHT22;3884;48.616;12.872;2023-09-07T06:55:00;16.00;96.50
7684;DHT22;3884;48.616;12.872;2023-09-07T06:57:27;16.20;1.00
7684;DHT22;3884;48.616;12.872;2023-09-07T06:59:54;16.50;1.00
7684;DHT22;3884;48.616;12.872;2023-09-07T07:02:21;16.70;1.00
7684;DHT22;3884;48.616;12.872;2023-09-07T07:04:48;16.90;1.00
7684;DHT22;3884;48.616;12.872;2023-09-07T07:07:17;17.10;34.00
7684;DHT22;3884;48.616;12.872;2023-09-07T07:09:44;17.30;94.70
7684;DHT22;3884;48.616;12.872;2023-09-07T07:12:11;17.50;1.00
7684;DHT22;3884;48.616;12.872;2023-09-07T07:14:39;17.70;99.90
7684;DHT22;3884;48.616;12.872;2023-09-07T07:17:06;18.00;99.90
7684;DHT22;3884;48.616;12.872;2023-09-07T07:19:34;18.10;99.90
7684;DHT22;3884;48.616;12.872;2023-09-07T07:22:03;18.40;99.90
7684;DHT22;3884;48.616;12.872;2023-09-07T07:24:33;18.50;1.00
7684;DHT22;3884;48.616;12.872;2023-09-07T07:27:00;18.60;1.00
7684;DHT22;3884;48.616;12.872;2023-09-07T07:29:30;18.90;1.00
7684;DHT22;3884;48.616;12.872;2023-09-07T07:31:57;19.10;1.00
7684;DHT22;3884;48.616;12.872;2023-09-07T07:34:23;19.20;99.90
7684;DHT22;3884;48.616;12.872;2023-09-07T07:36:50;19.50;99.90
7684;DHT22;3884;48.616;12.872;2023-09-07T07:39:17;19.60;99.90
7684;DHT22;3884;48.616;12.872;2023-09-07T07:41:46;19.90;99.90
7684;DHT22;3884;48.616;12.872;2023-09-07T07:44:13;19.90;99.90
7684;DHT22;3884;48.616;12.872;2023-09-07T07:46:40;20.20;99.90
7684;DHT22;3884;48.616;12.872;2023-09-07T07:49:07;20.40;99.90
7684;DHT22;3884;48.616;12.872;2023-09-07T07:51:35;20.60;99.90
7684;DHT22;3884;48.616;12.872;2023-09-07T07:54:02;20.60;99.90
7684;DHT22;3884;48.616;12.872;2023-09-07T07:56:29;20.60;96.40
7684;DHT22;3884;48.616;12.872;2023-09-07T07:58:57;20.80;88.00
7684;DHT22;3884;48.616;12.872;2023-09-07T08:01:24;21.00;99.90
7684;DHT22;3884;48.616;12.872;2023-09-07T08:03:53;21.10;99.90
7684;DHT22;3884;48.616;12.872;2023-09-07T08:06:21;21.10;92.00
7684;DHT22;3884;48.616;12.872;2023-09-07T08:08:49;21.30;58.10
7684;DHT22;3884;48.616;12.872;2023-09-07T08:11:16;21.30;87.40
7684;DHT22;3884;48.616;12.872;2023-09-07T08:13:47;21.50;54.70
7684;DHT22;3884;48.616;12.872;2023-09-07T08:16:16;21.50;20.60
7684;DHT22;3884;48.616;12.872;2023-09-07T08:18:43;21.60;78.90
7684;DHT22;3884;48.616;12.872;2023-09-07T08:21:15;21.70;1.00
7684;DHT22;3884;48.616;12.872;2023-09-07T08:23:42;21.90;1.00
7684;DHT22;3884;48.616;12.872;2023-09-07T08:26:09;21.70;1.00
7684;DHT22;3884;48.616;12.872;2023-09-07T08:28:40;22.00;1.00
7684;DHT22;3884;48.616;12.872;2023-09-07T08:31:06;22.00;1.00
7684;DHT22;3884;48.616;12.872;2023-09-07T08:33:35;22.30;1.00
7684;DHT22;3884;48.616;12.872;2023-09-07T08:36:06;22.20;1.00
7684;DHT22;3884;48.616;12.872;2023-09-07T08:38:34;22.40;1.00
7684;DHT22;3884;48.616;12.872;2023-09-07T08:41:02;22.40;1.00
7684;DHT22;3884;48.616;12.872;2023-09-07T08:43:33;22.60;1.00
7684;DHT22;3884;48.616;12.872;2023-09-07T08:46:11;22.80;1.00
7684;DHT22;3884;48.616;12.872;2023-09-07T08:48:42;23.00;1.00
7684;DHT22;3884;48.616;12.872;2023-09-07T08:51:10;23.10;1.00
7684;DHT22;3884;48.616;12.872;2023-09-07T08:53:39;23.30;1.00
7684;DHT22;3884;48.616;12.872;2023-09-07T08:56:06;23.30;1.00
7684;DHT22;3884;48.616;12.872;2023-09-07T08:58:36;23.20;1.00
7684;DHT22;3884;48.616;12.872;2023-09-07T09:01:03;23.40;1.00
7684;DHT22;3884;48.616;12.872;2023-09-07T09:03:30;23.70;1.00
7684;DHT22;3884;48.616;12.872;2023-09-07T09:05:58;23.80;1.00
7684;DHT22;3884;48.616;12.872;2023-09-07T09:08:25;23.80;1.00
7684;DHT22;3884;48.616;12.872;2023-09-07T09:10:59;23.90;1.00
7684;DHT22;3884;48.616;12.872;2023-09-07T09:13:30;23.70;1.00
7684;DHT22;3884;48.616;12.872;2023-09-07T09:15:59;23.60;1.00
7684;DHT22;3884;48.616;12.872;2023-09-07T09:18:26;23.70;99.90
7684;DHT22;3884;48.616;12.872;2023-09-07T09:20:54;23.60;99.90
7684;DHT22;3884;48.616;12.872;2023-09-07T09:23:22;23.80;99.90
7684;DHT22;3884;48.616;12.872;2023-09-07T09:25:50;23.90;99.90
7684;DHT22;3884;48.616;12.872;2023-09-07T09:28:17;23.80;99.90
7684;DHT22;3884;48.616;12.872;2023-09-07T09:30:44;23.90;99.90
7684;DHT22;3884;48.616;12.872;2023-09-07T09:33:11;24.00;99.90
7684;DHT22;3884;48.616;12.872;2023-09-07T09:35:38;24.10;99.90
7684;DHT22;3884;48.616;12.872;2023-09-07T09:38:05;24.20;99.90
7684;DHT22;3884;48.616;12.872;2023-09-07T09:40:34;24.40;99.90
7684;DHT22;3884;48.616;12.872;2023-09-07T09:43:02;24.40;99.90
7684;DHT22;3884;48.616;12.872;2023-09-07T09:45:29;24.50;99.90
7684;DHT22;3884;48.616;12.872;2023-09-07T09:47:58;24.50;99.90
7684;DHT22;3884;48.616;12.872;2023-09-07T09:50:26;24.20;99.90
7684;DHT22;3884;48.616;12.872;2023-09-07T09:52:54;24.50;99.90
7684;DHT22;3884;48.616;12.872;2023-09-07T09:55:22;24.50;99.90
7684;DHT22;3884;48.616;12.872;2023-09-07T09:57:53;24.70;99.90
7684;DHT22;3884;48.616;12.872;2023-09-07T10:00:23;24.70;99.90
7684;DHT22;3884;48.616;12.872;2023-09-07T10:02:58;24.50;99.90
7684;DHT22;3884;48.616;12.872;2023-09-07T10:05:30;24.50;99.90
7684;DHT22;3884;48.616;12.872;2023-09-07T10:08:01;24.60;99.90
7684;DHT22;3884;48.616;12.872;2023-09-07T10:10:33;24.60;99.90
7684;DHT22;3884;48.616;12.872;2023-09-07T10:13:03;24.70;99.90
7684;DHT22;3884;48.616;12.872;2023-09-07T10:15:30;24.80;99.90
7684;DHT22;3884;48.616;12.872;2023-09-07T10:18:09;24.80;99.90
7684;DHT22;3884;48.616;12.872;2023-09-07T10:20:54;24.80;99.90
7684;DHT22;3884;48.616;12.872;2023-09-07T10:23:22;24.90;99.90
7684;DHT22;3884;48.616;12.872;2023-09-07T10:25:51;25.00;99.90
7684;DHT22;3884;48.616;12.872;2023-09-07T10:28:23;24.90;99.90
7684;DHT22;3884;48.616;12.872;2023-09-07T10:31:01;24.90;99.90
7684;DHT22;3884;48.616;12.872;2023-09-07T10:33:30;24.90;99.90
7684;DHT22;3884;48.616;12.872;2023-09-07T10:35:59;24.90;99.90
7684;DHT22;3884;48.616;12.872;2023-09-07T10:38:27;24.90;99.90
7684;DHT22;3884;48.616;12.872;2023-09-07T10:40:58;25.00;99.90
7684;DHT22;3884;48.616;12.872;2023-09-07T10:43:27;25.20;99.90
7684;DHT22;3884;48.616;12.872;2023-09-07T10:45:55;25.20;99.90
7684;DHT22;3884;48.616;12.872;2023-09-07T10:48:22;25.10;99.90
7684;DHT22;3884;48.616;12.872;2023-09-07T10:50:51;25.10;99.90
7684;DHT22;3884;48.616;12.872;2023-09-07T10:53:25;25.20;99.90
7684;DHT22;3884;48.616;12.872;2023-09-07T10:55:57;25.30;99.90
7684;DHT22;3884;48.616;12.872;2023-09-07T10:58:27;25.20;99.90
7684;DHT22;3884;48.616;12.872;2023-09-07T11:00:54;25.20;99.90
7684;DHT22;3884;48.616;12.872;2023-09-07T11:03:21;25.20;99.90
7684;DHT22;3884;48.616;12.872;2023-09-07T11:05:49;25.40;99.90
7684;DHT22;3884;48.616;12.872;2023-09-07T11:08:17;25.30;99.90
7684;DHT22;3884;48.616;12.872;2023-09-07T11:10:44;25.30;99.90
7684;DHT22;3884;48.616;12.872;2023-09-07T11:13:11;25.40;99.90
7684;DHT22;3884;48.616;12.872;2023-09-07T11:15:39;25.40;99.90
7684;DHT22;3884;48.616;12.872;2023-09-07T11:18:09;25.40;99.90
7684;DHT22;3884;48.616;12.872;2023-09-07T11:20:36;25.30;99.90
7684;DHT22;3884;48.616;12.872;2023-09-07T11:23:05;25.40;99.90
7684;DHT22;3884;48.616;12.872;2023-09-07T11:25:36;25.20;99.90
7684;DHT22;3884;48.616;12.872;2023-09-07T11:28:03;25.30;99.90
7684;DHT22;3884;48.616;12.872;2023-09-07T11:30:30;25.30;99.90
7684;DHT22;3884;48.616;12.872;2023-09-07T11:33:03;25.50;99.90
7684;DHT22;3884;48.616;12.872;2023-09-07T11:35:31;25.70;99.90
7684;DHT22;3884;48.616;12.872;2023-09-07T11:37:59;25.60;99.90
7684;DHT22;3884;48.616;12.872;2023-09-07T11:40:26;25.70;99.90
7684;DHT22;3884;48.616;12.872;2023-09-07T11:42:53;25.70;99.90
7684;DHT22;3884;48.616;12.872;2023-09-07T11:45:20;25.80;99.90
7684;DHT22;3884;48.616;12.872;2023-09-07T11:47:47;25.70;99.90
7684;DHT22;3884;48.616;12.872;2023-09-07T11:50:17;25.80;99.90
7684;DHT22;3884;48.616;12.872;2023-09-07T11:52:44;25.80;99.90
7684;DHT22;3884;48.616;12.872;2023-09-07T11:55:13;25.90;99.90
7684;DHT22;3884;48.616;12.872;2023-09-07T11:57:40;26.00;99.90
7684;DHT22;3884;48.616;12.872;2023-09-07T12:00:08;26.00;99.90
7684;DHT22;3884;48.616;12.872;2023-09-07T12:02:39;26.20;99.90
7684;DHT22;3884;48.616;12.872;2023-09-07T12:05:07;26.30;99.90
7684;DHT22;3884;48.616;12.872;2023-09-07T12:07:36;26.40;99.90
7684;DHT22;3884;48.616;12.872;2023-09-07T12:10:04;26.20;99.90
7684;DHT22;3884;48.616;12.872;2023-09-07T12:12:32;26.30;99.90
7684;DHT22;3884;48.616;12.872;2023-09-07T12:14:59;26.20;99.90
7684;DHT22;3884;48.616;12.872;2023-09-07T12:17:26;26.40;99.90
7684;DHT22;3884;48.616;12.872;2023-09-07T12:19:52;26.40;99.90
7684;DHT22;3884;48.616;12.872;2023-09-07T12:22:19;26.20;99.90
7684;DHT22;3884;48.616;12.872;2023-09-07T12:24:48;26.20;99.90
7684;DHT22;3884;48.616;12.872;2023-09-07T12:27:15;26.20;99.90
7684;DHT22;3884;48.616;12.872;2023-09-07T12:29:42;26.20;99.90
7684;DHT22;3884;48.616;12.872;2023-09-07T12:32:09;26.40;99.90
7684;DHT22;3884;48.616;12.872;2023-09-07T12:34:37;26.60;99.90
7684;DHT22;3884;48.616;12.872;2023-09-07T12:37:04;26.60;99.90
7684;DHT22;3884;48.616;12.872;2023-09-07T12:39:31;26.60;99.90
7684;DHT22;3884;48.616;12.872;2023-09-07T12:42:00;26.60;99.90
7684;DHT22;3884;48.616;12.872;2023-09-07T12:44:27;26.60;99.90
7684;DHT22;3884;48.616;12.872;2023-09-07T12:46:54;26.60;99.90
7684;DHT22;3884;48.616;12.872;2023-09-07T12:49:21;26.80;99.90
7684;DHT22;3884;48.616;12.872;2023-09-07T12:51:48;26.80;99.90
7684;DHT22;3884;48.616;12.872;2023-09-07T12:54:15;26.80;99.90
7684;DHT22;3884;48.616;12.872;2023-09-07T12:56:43;26.80;99.90
7684;DHT22;3884;48.616;12.872;2023-09-07T12:59:11;26.90;99.90
7684;DHT22;3884;48.616;12.872;2023-09-07T13:01:38;27.20;99.90
7684;DHT22;3884;48.616;12.872;2023-09-07T13:04:05;27.30;99.90
7684;DHT22;3884;48.616;12.872;2023-09-07T13:06:32;27.50;99.90
7684;DHT22;3884;48.616;12.872;2023-09-07T13:09:01;27.50;99.90
7684;DHT22;3884;48.616;12.872;2023-09-07T13:11:30;27.50;99.90
7684;DHT22;3884;48.616;12.872;2023-09-07T13:13:57;27.60;99.90
7684;DHT22;3884;48.616;12.872;2023-09-07T13:16:25;27.70;99.90
7684;DHT22;3884;48.616;12.872;2023-09-07T13:18:52;27.40;99.90
7684;DHT22;3884;48.616;12.872;2023-09-07T13:21:19;27.30;99.90
7684;DHT22;3884;48.616;12.872;2023-09-07T13:23:46;27.60;99.90
7684;DHT22;3884;48.616;12.872;2023-09-07T13:26:13;27.60;99.90
7684;DHT22;3884;48.616;12.872;2023-09-07T13:28:40;27.70;99.90
7684;DHT22;3884;48.616;12.872;2023-09-07T13:31:07;27.90;99.90
7684;DHT22;3884;48.616;12.872;2023-09-07T13:33:35;27.70;99.90
7684;DHT22;3884;48.616;12.872;2023-09-07T13:36:02;28.00;99.90
7684;DHT22;3884;48.616;12.872;2023-09-07T13:38:29;28.20;99.90
7684;DHT22;3884;48.616;12.872;2023-09-07T13:40:56;28.30;99.90
7684;DHT22;3884;48.616;12.872;2023-09-07T13:43:23;28.30;99.90
7684;DHT22;3884;48.616;12.872;2023-09-07T13:45:50;28.30;99.90
7684;DHT22;3884;48.616;12.872;2023-09-07T13:48:17;28.50;99.90
7684;DHT22;3884;48.616;12.872;2023-09-07T13:50:45;28.70;99.90
7684;DHT22;3884;48.616;12.872;2023-09-07T13:53:12;28.50;99.90
7684;DHT22;3884;48.616;12.872;2023-09-07T13:55:39;28.60;99.90
7684;DHT22;3884;48.616;12.872;2023-09-07T13:58:07;28.50;99.90
7684;DHT22;3884;48.616;12.872;2023-09-07T14:00:34;28.60;99.90
7684;DHT22;3884;48.616;12.872;2023-09-07T14:03:01;28.60;99.90
7684;DHT22;3884;48.616;12.872;2023-09-07T14:05:28;28.60;99.90
7684;DHT22;3884;48.616;12.872;2023-09-07T14:07:57;28.40;99.90
7684;DHT22;3884;48.616;12.872;2023-09-07T14:10:24;28.30;99.90
7684;DHT22;3884;48.616;12.872;2023-09-07T14:12:51;28.40;99.90
7684;DHT22;3884;48.616;12.872;2023-09-07T14:15:17;28.40;99.90
7684;DHT22;3884;48.616;12.872;2023-09-07T14:17:44;28.60;99.90
7684;DHT22;3884;48.616;12.872;2023-09-07T14:20:11;28.70;99.90
7684;DHT22;3884;48.616;12.872;2023-09-07T14:22:39;28.80;99.90
7684;DHT22;3884;48.616;12.872;2023-09-07T14:25:08;28.60;99.90
7684;DHT22;3884;48.616;12.872;2023-09-07T14:27:35;28.80;99.90
7684;DHT22;3884;48.616;12.872;2023-09-07T14:30:02;28.80;99.90
7684;DHT22;3884;48.616;12.872;2023-09-07T14:32:29;28.90;99.90
7684;DHT22;3884;48.616;12.872;2023-09-07T14:34:55;28.70;99.90
7684;DHT22;3884;48.616;12.872;2023-09-07T14:37:22;28.80;99.90
7684;DHT22;3884;48.616;12.872;2023-09-07T14:39:49;28.90;99.90
7684;DHT22;3884;48.616;12.872;2023-09-07T14:42:17;28.90;99.90
7684;DHT22;3884;48.616;12.872;2023-09-07T14:44:45;29.00;99.90
7684;DHT22;3884;48.616;12.872;2023-09-07T14:47:12;28.90;99.90
7684;DHT22;3884;48.616;12.872;2023-09-07T14:49:39;29.10;99.90
7684;DHT22;3884;48.616;12.872;2023-09-07T14:52:06;29.10;99.90
7684;DHT22;3884;48.616;12.872;2023-09-07T14:54:33;29.40;99.90
7684;DHT22;3884;48.616;12.872;2023-09-07T14:57:00;29.30;99.90
7684;DHT22;3884;48.616;12.872;2023-09-07T14:59:30;29.30;99.90
7684;DHT22;3884;48.616;12.872;2023-09-07T15:01:56;29.20;99.90
7684;DHT22;3884;48.616;12.872;2023-09-07T15:04:23;29.00;99.90
7684;DHT22;3884;48.616;12.872;2023-09-07T15:06:50;29.30;99.90
7684;DHT22;3884;48.616;12.872;2023-09-07T15:09:17;29.00;99.90
7684;DHT22;3884;48.616;12.872;2023-09-07T15:11:44;29.00;99.90
7684;DHT22;3884;48.616;12.872;2023-09-07T15:14:11;29.20;99.90
7684;DHT22;3884;48.616;12.872;2023-09-07T15:16:39;28.90;99.90
7684;DHT22;3884;48.616;12.872;2023-09-07T15:19:07;28.80;99.90
7684;DHT22;3884;48.616;12.872;2023-09-07T15:21:34;29.20;99.90
7684;DHT22;3884;48.616;12.872;2023-09-07T15:24:01;29.30;99.90
7684;DHT22;3884;48.616;12.872;2023-09-07T15:26:27;29.30;99.90
7684;DHT22;3884;48.616;12.872;2023-09-07T15:28:55;29.50;99.90
7684;DHT22;3884;48.616;12.872;2023-09-07T15:31:22;29.40;99.90
7684;DHT22;3884;48.616;12.872;2023-09-07T15:33:50;29.40;99.90
7684;DHT22;3884;48.616;12.872;2023-09-07T15:36:17;29.20;99.90
7684;DHT22;3884;48.616;12.872;2023-09-07T15:38:44;29.30;99.90
7684;DHT22;3884;48.616;12.872;2023-09-07T15:41:13;29.20;99.90
7684;DHT22;3884;48.616;12.872;2023-09-07T15:43:40;28.80;99.90
7684;DHT22;3884;48.616;12.872;2023-09-07T15:46:08;29.10;99.90
7684;DHT22;3884;48.616;12.872;2023-09-07T15:48:35;29.00;99.90
7684;DHT22;3884;48.616;12.872;2023-09-07T15:51:03;29.00;99.90
7684;DHT22;3884;48.616;12.872;2023-09-07T15:53:31;29.10;99.90